»·PEaware :: N236M KLAS-KPSP

N236M :: KLAS-KPSP

FLIGHT INFORMATION

Flight Status: Arrived
Operator: Privately registered:
United States
More flights under this callsign
Pilot: Mark E. (9441)
Aircraft: ROCKWELL 200 COMMANDER
(M200)
More flights by this aircraft type
Origin: KLAS McCarran Intl
United States
Destination: KPSP Palm Springs Intl
United States
More flights between these airports :: More routes between these airports
Route: +LAS V538 GFS SBONO1
File this flight plan on PilotEdge
Remarks:
Altitude:
(Current/Filed)
14,000ft
Speed:
(Current/Filed)
165kts
Departed: 04-Jan-16 12:57 PM
Arrived: 04-Jan-16 02:22 PM
Distance/Time
Traveled:
151nm/1:25
Distance/Time
To Go:
Arrived

Flight Plot

Page will automatically refresh every two minutes.


Map Options




Map Legend


Flown Route
Filed Route
Departure Airport
Arrival Airport
Navaid (VOR, NDB)
Fix

Horizontal Profiles

Position Reports

Time Latitude Longitude Heading Altitude Ground
Speed
04-Jan-16 12:20 36.100081 -115.159638 202 2145ft 0kts
04-Jan-16 12:21 36.100081 -115.159638 202 2145ft 0kts
04-Jan-16 12:22 36.100081 -115.159638 202 2145ft 0kts
04-Jan-16 12:23 36.100081 -115.159638 202 2145ft 0kts
04-Jan-16 12:24 36.100081 -115.159638 202 2145ft 0kts
04-Jan-16 12:25 36.100081 -115.159638 202 2145ft 0kts
04-Jan-16 12:26 36.100081 -115.159638 202 2145ft 0kts
04-Jan-16 12:27 36.100081 -115.159638 202 2145ft 0kts
04-Jan-16 12:28 36.100081 -115.159638 202 2145ft 0kts
04-Jan-16 12:29 36.100081 -115.159638 202 2145ft 0kts
04-Jan-16 12:30 36.100081 -115.159638 202 2145ft 0kts
04-Jan-16 12:31 36.100081 -115.159638 202 2145ft 0kts
04-Jan-16 12:32 36.100081 -115.159638 202 2145ft 0kts
04-Jan-16 12:33 36.100081 -115.159638 202 2145ft 0kts
04-Jan-16 12:34 36.100081 -115.159638 202 2145ft 0kts
04-Jan-16 12:35 36.100081 -115.159638 202 2145ft 0kts
04-Jan-16 12:36 36.100081 -115.159638 202 2145ft 0kts
04-Jan-16 12:37 36.100081 -115.159638 202 2145ft 0kts
04-Jan-16 12:38 36.100081 -115.159638 202 2145ft 0kts
04-Jan-16 12:39 36.100081 -115.159638 202 2145ft 0kts
04-Jan-16 12:40 36.100081 -115.159638 202 2145ft 0kts
04-Jan-16 12:41 36.100081 -115.159638 202 2145ft 0kts
04-Jan-16 12:42 36.100081 -115.159638 202 2145ft 0kts
04-Jan-16 12:43 36.100015 -115.159654 172 2145ft 5kts
04-Jan-16 12:44 36.099246 -115.159479 204 2145ft 9kts
04-Jan-16 12:45 36.095983 -115.160855 211 2144ft 16kts
04-Jan-16 12:46 36.092131 -115.163082 200 2145ft 15kts
04-Jan-16 12:47 36.087778 -115.165598 207 2145ft 16kts
04-Jan-16 12:48 36.084254 -115.167602 203 2145ft 14kts
04-Jan-16 12:49 36.079910 -115.170082 204 2145ft 16kts
04-Jan-16 12:50 36.078302 -115.170749 87 2145ft 0kts
04-Jan-16 12:51 36.078235 -115.170411 107 2145ft 7kts
04-Jan-16 12:52 36.078136 -115.170111 108 2145ft 0kts
04-Jan-16 12:53 36.084753 -115.164986 25 2228ft 83kts
04-Jan-16 12:54 36.103219 -115.165731 305 3199ft 88kts
04-Jan-16 12:55 36.114907 -115.194815 299 4139ft 101kts
04-Jan-16 12:56 36.120972 -115.227253 233 4878ft 110kts
04-Jan-16 12:57 36.094425 -115.238190 191 5762ft 98kts
04-Jan-16 12:58 36.067677 -115.245755 191 6515ft 112kts
04-Jan-16 12:59 36.033741 -115.254508 191 7255ft 133kts
04-Jan-16 13:00 35.995213 -115.262300 165 7968ft 147kts
04-Jan-16 13:01 35.961766 -115.233830 141 8683ft 146kts
04-Jan-16 13:02 35.929920 -115.204563 141 9372ft 145kts
04-Jan-16 13:03 35.901139 -115.177598 139 10008ft 145kts
04-Jan-16 13:04 35.863900 -115.164279 178 10684ft 144kts
04-Jan-16 13:05 35.824651 -115.163403 183 11367ft 139kts
04-Jan-16 13:06 35.786740 -115.163708 184 12052ft 133kts
04-Jan-16 13:07 35.750858 -115.164218 184 12697ft 129kts
04-Jan-16 13:08 35.715494 -115.164828 184 13285ft 128kts
04-Jan-16 13:09 35.680162 -115.165453 184 13877ft 127kts
04-Jan-16 13:10 35.640874 -115.166326 184 13979ft 158kts
04-Jan-16 13:11 35.595344 -115.167256 183 13974ft 170kts
04-Jan-16 13:12 35.547608 -115.168129 183 13973ft 174kts
04-Jan-16 13:13 35.499521 -115.168983 183 13973ft 176kts
04-Jan-16 13:14 35.450352 -115.169851 183 13973ft 178kts
04-Jan-16 13:15 35.400806 -115.170723 183 13973ft 179kts
04-Jan-16 13:16 35.351051 -115.171598 183 13973ft 181kts
04-Jan-16 13:17 35.301479 -115.172465 183 13973ft 182kts
04-Jan-16 13:18 35.251317 -115.173338 183 13973ft 182kts
04-Jan-16 13:19 35.218530 -115.173907 183 13973ft 182kts
04-Jan-16 13:20 35.176659 -115.174633 183 13973ft 182kts
04-Jan-16 13:21 35.127600 -115.176797 202 13962ft 179kts
04-Jan-16 13:22 35.082074 -115.196828 203 13973ft 179kts
04-Jan-16 13:23 35.036965 -115.216780 203 13973ft 179kts
04-Jan-16 13:24 34.990892 -115.237135 203 13973ft 178kts
04-Jan-16 13:25 34.945393 -115.257211 203 13973ft 178kts
04-Jan-16 13:26 34.900280 -115.277099 203 13973ft 178kts
04-Jan-16 13:27 34.855140 -115.296973 203 13971ft 178kts
04-Jan-16 13:28 34.809637 -115.316983 203 13971ft 178kts
04-Jan-16 13:29 34.763594 -115.337206 203 13971ft 178kts
04-Jan-16 13:30 34.717811 -115.357292 203 13971ft 178kts
04-Jan-16 13:31 34.672369 -115.377205 203 13971ft 178kts
04-Jan-16 13:32 34.634016 -115.393994 203 13972ft 178kts
04-Jan-16 13:33 34.595779 -115.410715 203 13972ft 178kts
04-Jan-16 13:34 34.550235 -115.430610 203 13972ft 178kts
04-Jan-16 13:35 34.505202 -115.450259 203 13972ft 178kts
04-Jan-16 13:36 34.459358 -115.470238 203 13972ft 178kts
04-Jan-16 13:37 34.421527 -115.486708 203 13972ft 178kts
04-Jan-16 13:38 34.367969 -115.509997 203 13972ft 178kts
04-Jan-16 13:39 34.323720 -115.530616 223 13957ft 175kts
04-Jan-16 13:40 34.289721 -115.568447 227 13971ft 168kts
04-Jan-16 13:41 34.262143 -115.599514 227 13972ft 167kts
04-Jan-16 13:42 34.229303 -115.636505 227 13972ft 167kts
04-Jan-16 13:43 34.196960 -115.672905 226 13974ft 168kts
04-Jan-16 13:44 34.165121 -115.708727 226 13974ft 171kts
04-Jan-16 13:45 34.136836 -115.740498 226 13974ft 171kts
04-Jan-16 13:46 34.101273 -115.777228 217 13974ft 173kts
04-Jan-16 13:47 34.062346 -115.808789 217 13856ft 178kts
04-Jan-16 13:48 34.022663 -115.840934 217 13273ft 174kts
04-Jan-16 13:49 33.983790 -115.872315 217 12710ft 152kts
04-Jan-16 13:50 33.952526 -115.897233 218 12092ft 128kts
04-Jan-16 13:51 33.923743 -115.920400 218 11508ft 126kts
04-Jan-16 13:52 33.894935 -115.941999 215 10939ft 128kts
04-Jan-16 13:53 33.865322 -115.964382 218 10348ft 129kts
04-Jan-16 13:54 33.836079 -115.988259 218 9755ft 131kts
04-Jan-16 13:55 33.807370 -116.014140 230 9160ft 131kts
04-Jan-16 13:56 33.777101 -116.037440 216 8563ft 132kts
04-Jan-16 13:57 33.747295 -116.061626 217 7965ft 131kts
04-Jan-16 13:58 33.718017 -116.085754 216 7373ft 132kts
04-Jan-16 13:59 33.690140 -116.108790 216 6968ft 132kts
04-Jan-16 14:00 33.663099 -116.130851 216 6966ft 114kts
04-Jan-16 14:01 33.639374 -116.153132 213 7028ft 111kts
04-Jan-16 14:02 33.615430 -116.138818 124 6878ft 98kts
04-Jan-16 14:03 33.603076 -116.112771 69 6151ft 87kts
04-Jan-16 14:04 33.610762 -116.127648 267 5409ft 104kts
04-Jan-16 14:05 33.625716 -116.155177 304 4562ft 105kts
04-Jan-16 14:06 33.640854 -116.184176 300 3575ft 99kts
04-Jan-16 14:07 33.655102 -116.209266 310 3231ft 87kts
04-Jan-16 14:08 33.669359 -116.235808 308 3302ft 111kts
04-Jan-16 14:09 33.687062 -116.266605 308 3193ft 113kts
04-Jan-16 14:10 33.703781 -116.298478 309 3102ft 113kts
04-Jan-16 14:11 33.720857 -116.329323 307 3053ft 112kts
04-Jan-16 14:12 33.737624 -116.359320 307 3107ft 108kts
04-Jan-16 14:13 33.755249 -116.388986 306 3067ft 111kts
04-Jan-16 14:14 33.771820 -116.419681 305 2707ft 111kts
04-Jan-16 14:15 33.787359 -116.450046 306 2300ft 106kts
04-Jan-16 14:16 33.800138 -116.478294 305 1375ft 91kts
04-Jan-16 14:17 33.816909 -116.496326 329 568ft 74kts
04-Jan-16 14:18 33.825615 -116.503098 110 481ft 8kts

Navigation Log

Ident Type
Flight plan parsing failed, navigation log unavailable